Main page
METAR-TAF:

METAR-TAF

Airports :

Port Moresby, Papua New Guinea

Jacksons International Airport

latitude: 09-26S, longitude: 147-13E, elevation: 38 m

Current weather observation

The report was made 23 minutes ago, at 00:00 UTC
Wind 5 kt from the Southeast
Temperature 28°C
Humidity 74%
Pressure 1011 hPa
Visibility 10 km or more
Scattered clouds at a height of 2000 ft
Scattered clouds at a height of 4000 ft
Overcast at a height of 14000 ft

METAR: AYPY 200000Z 14005KT 9999 SCT020 SCT040 OVC140 28/23 Q1011 RMKS: THICK HZ

Time: 10:23 (00:23 UTC)

Forecast

The report was made 3 hours and 23 minutes ago, at 21:00 UTC
Forecast valid from 20 at 00 UTC to 20 at 24 UTC
Wind 8 kt from the Southeast
Visibility 10 km or more
Scattered clouds at a height of 1800 ft
From 20 at 0400 UTC
Wind 12 kt from the South/Southeast
Visibility 10 km or more
Scattered clouds at a height of 1800 ft
Scattered clouds at a height of 4000 ft

TAF: AYPY 192100Z 2000/2024 14008KT 9999 SCT018 FM200400 16012KT 9999 SCT018 SCT040

Weather observations and forecasts of more than 4000 airports (METAR and TAF reports).

The available stations are represented by yellow and red dots on the map.

Hover mouse over dot to see the name of the station.

Then click to see weather observations and forecasts.

To change the map : click on the green buttons with a black cross to zoom in, on the green button with a dash to zoom out, or on the green arrows for adjacent maps.


METAR-TAF: